Time;durP1;ratioP1;P1;durP2;ratioP2;P2;SDS_P1;SDS_P2;PMS_P1;PMS_P2;Temp;Humidity;BMP_temperature;BMP_pressure;BME280_temperature;BME280_humidity;BME280_pressure;Samples;Min_cycle;Max_cycle;Signal;HPM_P1;HPM_P2
2022/04/05 00:00:18;;;;;;;16.95;10.23;;;1.50;1.00;;;1.49;77.83;97375.72;5024512;27;130052;-63
2022/04/05 00:02:48;;;;;;;14.25;9.88;;;1.50;1.00;;;1.59;77.66;97372.00;5025704;27;128975;-63
2022/04/05 00:05:17;;;;;;;18.23;10.38;;;1.60;1.00;;;1.67;77.68;97365.94;5022953;27;119797;-63
2022/04/05 00:07:46;;;;;;;18.20;9.73;;;1.50;1.00;;;1.60;77.88;97365.56;5026049;27;121217;-63
2022/04/05 00:10:16;;;;;;;17.42;10.20;;;1.50;1.00;;;1.64;77.46;97361.22;5039407;27;130180;-63
2022/04/05 00:12:44;;;;;;;16.17;10.05;;;1.50;1.00;;;1.84;76.32;97343.06;5040386;27;129658;-64
2022/04/05 00:15:13;;;;;;;14.25;9.77;;;1.50;1.00;;;1.66;77.19;97351.00;5041213;27;119997;-62
2022/04/05 00:17:41;;;;;;;13.88;9.45;;;1.50;1.00;;;1.75;76.48;97338.47;5040228;27;120147;-63
2022/04/05 00:20:10;;;;;;;13.35;9.63;;;1.60;1.00;;;1.79;76.12;97331.41;5041689;27;129966;-62
2022/04/05 00:22:39;;;;;;;14.40;9.65;;;1.60;1.00;;;1.85;76.46;97328.59;5040251;27;129971;-63
2022/04/05 00:25:09;;;;;;;14.73;9.48;;;1.50;1.00;;;1.77;76.78;97322.88;5042802;27;123218;-62
2022/04/05 00:27:38;;;;;;;16.35;9.90;;;1.60;1.00;;;1.69;76.78;97312.94;5040698;27;121971;-62
2022/04/05 00:30:08;;;;;;;16.83;9.35;;;1.60;1.00;;;1.71;77.10;97305.38;5038830;27;129776;-62
2022/04/05 00:32:37;;;;;;;15.10;8.95;;;1.60;1.00;;;1.82;76.67;97302.47;5025164;27;129238;-63
2022/04/05 00:35:08;;;;;;;17.63;9.60;;;1.60;1.00;;;1.69;76.79;97304.13;5025839;27;118846;-62
2022/04/05 00:37:37;;;;;;;13.02;8.95;;;1.60;1.00;;;1.73;76.84;97284.50;5040469;27;118934;-62
2022/04/05 00:40:08;;;;;;;14.48;10.35;;;1.60;1.00;;;1.62;77.11;97285.84;5025297;27;128965;-63
2022/04/05 00:42:38;;;;;;;14.18;9.20;;;1.60;1.00;;;1.61;77.02;97270.91;5025630;27;128967;-62
2022/04/05 00:45:09;;;;;;;12.85;9.00;;;1.60;1.00;;;1.56;77.00;97279.06;5040391;27;119757;-63
2022/04/05 00:47:39;;;;;;;14.70;8.82;;;1.60;1.00;;;1.69;76.53;97267.47;5025555;27;119564;-63
2022/04/05 00:50:09;;;;;;;15.00;9.35;;;1.60;1.00;;;1.55;77.10;97261.44;5020772;27;130147;-62
2022/04/05 00:52:38;;;;;;;15.07;9.55;;;1.60;1.00;;;1.64;76.80;97253.44;5040224;27;129469;-63
2022/04/05 00:55:07;;;;;;;13.77;8.82;;;1.60;1.00;;;1.71;76.53;97248.44;5043691;27;119932;-63
2022/04/05 00:57:39;;;;;;;13.98;8.85;;;1.60;1.00;;;1.72;76.19;97247.38;5040441;27;119448;-63
2022/04/05 01:00:09;;;;;;;15.95;9.15;;;1.60;1.00;;;1.74;76.21;97245.94;5021977;27;129865;-63
2022/04/05 01:02:40;;;;;;;13.50;9.40;;;1.60;1.00;;;1.74;75.76;97242.50;5040188;27;129656;-64
2022/04/05 01:05:10;;;;;;;15.52;8.85;;;1.70;1.00;;;1.78;75.76;97233.53;5040287;27;119212;-63
2022/04/05 01:07:43;;;;;;;13.32;8.73;;;1.70;1.00;;;1.76;75.15;97242.97;5040522;27;119548;-62
2022/04/05 01:10:11;;;;;;;14.45;8.98;;;1.70;1.00;;;1.74;75.67;97227.22;5038458;27;130070;-63
2022/04/05 01:12:41;;;;;;;12.55;8.30;;;1.70;1.00;;;1.94;74.45;97227.78;5008191;27;129298;-63
2022/04/05 01:15:12;;;;;;;13.82;9.50;;;1.70;1.00;;;1.89;74.71;97223.34;5023684;27;121476;-62
2022/04/05 01:17:41;;;;;;;12.27;8.80;;;1.70;1.00;;;1.71;75.20;97214.47;5040047;27;121852;-64
2022/04/05 01:20:12;;;;;;;13.20;8.77;;;1.70;1.00;;;1.79;74.69;97208.38;5040254;27;129818;-62
2022/04/05 01:22:48;;;;;;;13.75;9.07;;;1.70;1.00;;;1.80;74.56;97209.94;5021486;27;129894;-64
2022/04/05 01:25:20;;;;;;;;;;;1.70;1.00;;;1.71;74.69;97198.44;5040261;27;120015;-64
2022/04/05 01:27:49;;;;;;;15.13;9.43;;;1.70;1.00;;;1.87;74.48;97203.34;5025011;27;119126;-64
2022/04/05 01:30:18;;;;;;;13.40;8.88;;;1.70;1.00;;;1.91;73.78;97190.94;5024446;27;129574;-62
2022/04/05 01:32:47;;;;;;;15.43;9.70;;;1.70;1.00;;;1.96;73.45;97190.78;5039564;27;129510;-63
2022/04/05 01:35:16;;;;;;;13.55;8.85;;;1.70;1.00;;;1.78;74.07;97185.41;5040113;27;119836;-62
2022/04/05 01:37:45;;;;;;;13.68;8.80;;;1.70;1.00;;;1.86;73.40;97180.41;5039850;27;119516;-63
2022/04/05 01:40:14;;;;;;;13.80;8.02;;;1.70;1.00;;;1.90;73.33;97175.97;5037939;27;130225;-64
2022/04/05 01:42:43;;;;;;;13.98;8.90;;;1.70;1.00;;;1.87;73.40;97172.06;5039385;27;130142;-64
2022/04/05 01:45:12;;;;;;;13.73;8.75;;;1.70;1.00;;;1.96;73.05;97169.38;5024821;27;119999;-63
2022/04/05 01:47:40;;;;;;;15.80;9.23;;;1.70;1.00;;;2.00;73.00;97161.53;5007559;27;119719;-62
2022/04/05 01:50:10;;;;;;;13.45;8.75;;;1.70;1.00;;;2.02;72.29;97152.09;5038009;27;130782;-62
2022/04/05 01:52:38;;;;;;;16.95;9.27;;;1.70;1.00;;;1.94;72.05;97150.97;5040809;27;130110;-63
2022/04/05 01:55:08;;;;;;;12.52;8.75;;;1.70;1.00;;;2.00;71.90;97140.94;5039552;27;119651;-63
2022/04/05 01:57:37;;;;;;;13.55;8.80;;;1.70;1.00;;;1.90;72.61;97149.22;5024675;27;118523;-62
2022/04/05 02:00:14;;;;;;;13.77;9.23;;;1.70;1.00;;;1.96;72.14;97138.09;5038876;27;129965;-61
2022/04/05 02:02:43;;;;;;;14.55;8.70;;;1.80;1.00;;;1.89;72.96;97145.00;5024261;27;128408;-63
2022/04/05 02:05:12;;;;;;;16.10;9.50;;;1.80;1.00;;;1.76;74.40;97134.13;5023082;27;121560;-64
2022/04/05 02:07:40;;;;;;;15.50;9.95;;;1.70;1.00;;;1.95;73.06;97135.72;5039399;27;121722;-62
2022/04/05 02:10:10;;;;;;;15.95;9.10;;;1.70;1.00;;;1.94;73.82;97134.16;5007214;27;129498;-62
2022/04/05 02:12:40;;;;;;;12.88;9.10;;;1.70;1.00;;;1.88;74.42;97119.34;5038863;27;129477;-62
2022/04/05 02:15:29;;;;;;;15.75;9.48;;;1.60;1.00;;;1.95;74.85;97130.38;5023899;27;120286;-61
2022/04/05 02:18:06;;;;;;;14.35;9.50;;;1.60;1.00;;;1.88;75.38;97111.31;5037918;27;119340;-62
2022/04/05 02:20:36;;;;;;;13.50;9.20;;;1.60;1.00;;;1.74;76.23;97114.91;5040053;27;129854;-62
2022/04/05 02:23:04;;;;;;;16.08;9.80;;;1.50;1.00;;;1.65;77.81;97107.97;5020898;27;129420;-65
2022/04/05 02:25:53;;;;;;;15.07;9.32;;;1.50;1.00;;;1.56;78.40;97107.97;5023789;27;119103;-61
2022/04/05 02:28:26;;;;;;;20.63;9.88;;;1.40;1.00;;;1.57;78.99;97096.16;5024136;27;118671;-61
2022/04/05 02:31:01;;;;;;;13.65;9.93;;;1.30;1.00;;;1.67;78.46;97097.75;5005589;27;129919;-61
2022/04/05 02:33:36;;;;;;;15.25;10.10;;;1.30;1.00;;;1.63;79.33;97089.56;5037106;27;130366;-61
2022/04/05 02:36:10;;;;;;;14.68;10.50;;;1.30;1.00;;;1.51;80.25;97106.22;5023361;27;120426;-62
2022/04/05 02:38:39;;;;;;;17.98;10.45;;;1.20;1.00;;;1.38;82.06;97097.19;5020768;27;120004;-61
2022/04/05 02:41:10;;;;;;;16.92;11.23;;;1.10;1.00;;;1.14;85.08;97086.13;5022882;27;129507;-62
2022/04/05 02:43:41;;;;;;;16.75;10.60;;;1.00;1.00;;;1.13;86.24;97089.91;5040528;27;129886;-62
2022/04/05 02:46:13;;;;;;;19.35;11.85;;;0.90;1.00;;;0.99;89.05;97090.00;5037315;27;120181;-62
2022/04/05 02:48:46;;;;;;;21.17;12.15;;;0.70;1.00;;;1.03;89.98;97091.75;5038991;27;119541;-61
2022/04/05 02:51:23;;;;;;;19.15;12.40;;;0.60;1.00;;;0.76;91.76;97083.91;5037198;27;130299;-61
2022/04/05 02:53:53;;;;;;;18.02;12.75;;;0.60;1.00;;;0.80;93.14;97082.22;5022899;27;129276;-62
2022/04/05 02:56:22;;;;;;;20.63;13.73;;;0.50;1.00;;;0.96;92.58;97075.34;5019312;27;123565;-62
2022/04/05 02:58:53;;;;;;;20.67;12.65;;;0.40;1.00;;;0.87;93.42;97072.66;5038756;27;121849;-62
2022/04/05 03:01:24;;;;;;;21.38;13.85;;;0.50;1.00;;;0.65;95.08;97062.78;5019857;27;130907;-62
2022/04/05 03:03:55;;;;;;;22.80;13.68;;;0.40;1.00;;;0.45;96.86;97057.97;5039971;27;129414;-62
2022/04/05 03:06:25;;;;;;;24.55;13.40;;;0.40;1.00;;;0.42;97.46;97039.91;5037107;27;120361;-61
2022/04/05 03:08:56;;;;;;;21.30;14.18;;;0.30;1.00;;;0.33;98.27;97040.66;5037322;27;119445;-61
2022/04/05 03:11:26;;;;;;;23.95;14.52;;;0.30;1.00;;;0.17;100.00;97034.91;5019819;27;129936;-63
2022/04/05 03:13:57;;;;;;;24.25;14.45;;;0.20;1.00;;;0.17;100.00;97028.75;5023493;27;129300;-63
2022/04/05 03:16:26;;;;;;;22.42;14.20;;;0.20;2.40;;;0.12;100.00;97020.88;5023434;27;119235;-62
2022/04/05 03:18:57;;;;;;;22.05;13.77;;;0.10;9.90;;;0.01;100.00;97022.22;5022798;27;120836;-63
2022/04/05 03:21:27;;;;;;;22.75;14.35;;;0.10;15.50;;;-0.03;100.00;97036.16;5038394;27;129588;-62
2022/04/05 03:23:55;;;;;;;25.00;15.13;;;0.10;21.30;;;0.00;100.00;97018.78;5022654;27;129639;-63
2022/04/05 03:26:24;;;;;;;24.38;15.68;;;0.10;27.10;;;-0.01;100.00;97017.97;5038440;27;119498;-62
2022/04/05 03:28:53;;;;;;;24.17;15.75;;;0.10;33.50;;;0.01;100.00;97004.34;5019916;27;119515;-63
2022/04/05 03:31:22;;;;;;;23.98;15.68;;;0.00;40.10;;;-0.15;100.00;97001.25;5019795;27;130151;-62
2022/04/05 03:33:55;;;;;;;24.77;15.68;;;0.00;47.60;;;0.05;100.00;97000.00;5041676;27;129981;-62
2022/04/05 03:36:24;;;;;;;27.20;16.15;;;0.00;54.70;;;-0.08;100.00;96996.31;5026462;27;118643;-63
2022/04/05 03:38:52;;;;;;;24.70;16.23;;;0.00;61.30;;;-0.05;100.00;96989.56;5044137;27;119482;-63
2022/04/05 03:41:21;;;;;;;27.67;16.63;;;0.00;67.00;;;-0.05;100.00;96990.34;5041298;27;129993;-61
2022/04/05 03:43:50;;;;;;;23.88;15.93;;;0.00;72.70;;;-0.08;100.00;96984.81;5026349;27;128640;-62
2022/04/05 03:46:25;;;;;;;25.15;15.77;;;0.00;72.90;;;-0.11;100.00;96975.56;5040038;27;121739;-63
2022/04/05 03:48:56;;;;;;;24.88;15.63;;;0.00;71.70;;;-0.05;100.00;96974.38;5043365;27;121493;-62
2022/04/05 03:51:26;;;;;;;24.90;15.40;;;0.00;70.00;;;-0.21;100.00;96975.81;5040753;27;129886;-63
2022/04/05 03:54:00;;;;;;;25.63;16.23;;;0.00;65.60;;;-0.12;100.00;96989.22;5009097;27;128986;-62
2022/04/05 03:56:32;;;;;;;24.77;15.25;;;0.00;67.20;;;-0.01;100.00;96985.97;5026488;27;118655;-61
2022/04/05 03:59:05;;;;;;;26.05;15.93;;;0.00;70.40;;;-0.04;100.00;96988.47;5039882;27;119956;-62
2022/04/05 04:01:35;;;;;;;24.38;16.10;;;0.00;73.80;;;-0.15;100.00;96971.16;5022669;27;129781;-63
2022/04/05 04:04:05;;;;;;;28.58;16.85;;;-0.10;70.20;;;-0.13;100.00;96967.06;5041093;27;129873;-63
2022/04/05 04:06:34;;;;;;;24.90;15.80;;;0.00;66.50;;;-0.11;100.00;96954.25;5023042;27;119564;-65
2022/04/05 04:09:04;;;;;;;26.42;16.95;;;0.00;62.00;;;-0.04;100.00;96949.25;5026567;27;120287;-63
2022/04/05 04:11:33;;;;;;;24.15;15.75;;;0.00;57.50;;;-0.12;100.00;96958.00;5021233;27;130564;-62
2022/04/05 04:14:02;;;;;;;26.73;16.83;;;0.00;49.50;;;-0.06;100.00;96967.44;5025804;27;128274;-62
2022/04/05 04:16:32;;;;;;;25.50;16.30;;;0.10;45.10;;;0.10;100.00;96948.41;5039384;27;119771;-62
2022/04/05 04:19:00;;;;;;;25.38;16.52;;;0.10;45.10;;;0.18;100.00;96951.09;5038006;27;118446;-63
2022/04/05 04:21:34;;;;;;;24.13;16.23;;;0.10;40.60;;;0.15;100.00;96950.94;5021411;28;131458;-63
2022/04/05 04:24:04;;;;;;;28.55;16.08;;;0.10;35.60;;;0.16;100.00;96923.97;5019589;28;129441;-63
2022/04/05 04:26:33;;;;;;;22.95;15.23;;;0.20;36.50;;;0.13;100.00;96947.78;5018008;28;120824;-63
2022/04/05 04:29:04;;;;;;;22.77;15.82;;;0.10;38.00;;;0.13;100.00;96929.13;5022252;28;118422;-62
2022/04/05 04:31:32;;;;;;;24.23;16.08;;;0.20;36.20;;;0.04;100.00;96934.41;5020137;28;130009;-63
2022/04/05 04:34:01;;;;;;;26.77;17.10;;;0.10;40.40;;;0.29;100.00;96935.63;5019544;28;129553;-63
2022/04/05 04:36:30;;;;;;;26.75;17.27;;;0.10;47.70;;;0.20;100.00;96924.13;5019089;28;122281;-62
2022/04/05 04:39:00;;;;;;;25.92;17.27;;;0.10;48.10;;;0.32;100.00;96923.56;5003857;28;120890;-63
2022/04/05 04:41:29;;;;;;;26.35;17.52;;;0.20;50.70;;;0.32;100.00;96919.00;5019992;27;129690;-63
2022/04/05 04:43:57;;;;;;;26.77;17.30;;;0.20;49.70;;;0.40;100.00;96908.69;5019518;28;129358;-63
2022/04/05 04:46:26;;;;;;;26.63;16.98;;;0.30;49.60;;;0.41;100.00;96920.94;5020126;28;119488;-65
2022/04/05 04:48:54;;;;;;;28.35;17.92;;;0.30;45.40;;;0.56;100.00;96898.38;5020176;28;119700;-63
2022/04/05 04:51:24;;;;;;;28.17;17.02;;;0.30;43.00;;;0.48;100.00;96910.59;5019786;28;129711;-65
2022/04/05 04:53:53;;;;;;;25.23;16.23;;;0.30;35.20;;;0.48;100.00;96911.41;5019920;28;130134;-62
2022/04/05 04:56:22;;;;;;;28.42;17.75;;;0.30;34.90;;;0.46;100.00;96904.78;5020087;28;119476;-65
2022/04/05 04:58:51;;;;;;;25.75;16.42;;;0.30;25.80;;;0.56;100.00;96901.81;5020060;28;119221;-62
2022/04/05 05:01:19;;;;;;;25.33;16.30;;;0.40;24.10;;;0.62;100.00;96918.50;5018671;28;131525;-62
2022/04/05 05:03:48;;;;;;;26.58;16.67;;;0.40;21.10;;;0.63;99.57;96888.81;5019557;28;129401;-63
2022/04/05 05:06:16;;;;;;;27.77;15.63;;;0.40;14.20;;;0.48;100.00;96898.06;5018225;28;119418;-64
2022/04/05 05:08:45;;;;;;;25.77;17.08;;;0.40;12.00;;;0.63;100.00;96902.16;5019308;28;119585;-63
2022/04/05 05:11:13;;;;;;;25.90;17.50;;;0.40;13.60;;;0.67;100.00;96892.44;5019690;28;129663;-64
2022/04/05 05:13:43;;;;;;;24.77;16.23;;;0.40;13.10;;;0.68;99.77;96894.00;5019471;28;129598;-62
2022/04/05 05:16:11;;;;;;;23.77;15.95;;;0.40;8.30;;;0.62;99.96;96895.25;5019939;28;119936;-63
2022/04/05 05:18:40;;;;;;;27.35;17.20;;;0.40;5.50;;;0.70;99.43;96891.03;5020119;28;120114;-61
2022/04/05 05:21:08;;;;;;;24.27;17.00;;;0.50;2.50;;;0.59;99.82;96884.41;5038687;27;130170;-61
2022/04/05 05:23:37;;;;;;;24.52;16.30;;;0.50;1.00;;;0.74;99.43;96896.53;5039376;27;129432;-62
2022/04/05 05:26:05;;;;;;;25.23;16.58;;;0.50;1.00;;;0.70;99.05;96897.16;5038626;27;122697;-62
2022/04/05 05:28:34;;;;;;;25.50;17.50;;;0.50;1.00;;;0.84;99.05;96888.22;5039687;27;122337;-62
2022/04/05 05:31:04;;;;;;;25.08;15.70;;;0.50;1.00;;;1.19;97.45;96872.25;5024533;27;129429;-62
2022/04/05 05:33:32;;;;;;;21.63;15.40;;;0.70;1.00;;;1.46;95.49;96863.13;5039405;27;129956;-63
2022/04/05 05:36:01;;;;;;;25.90;16.13;;;0.80;1.00;;;1.40;95.51;96875.06;5024422;27;118485;-64
2022/04/05 05:38:30;;;;;;;23.58;16.55;;;0.90;1.00;;;1.34;96.13;96877.13;5039826;27;119783;-62
2022/04/05 05:40:59;;;;;;;23.13;14.85;;;0.80;1.00;;;1.41;96.08;96861.38;5039389;27;130354;-63
2022/04/05 05:43:27;;;;;;;21.10;14.63;;;0.90;1.00;;;1.55;94.91;96868.47;5040016;27;129953;-65
2022/04/05 05:45:56;;;;;;;24.50;15.70;;;0.90;1.00;;;1.63;94.84;96872.22;5039608;27;119958;-63
2022/04/05 05:48:25;;;;;;;20.90;13.98;;;1.00;1.00;;;1.55;94.52;96844.41;5039502;27;119504;-63
2022/04/05 05:50:55;;;;;;;23.85;14.48;;;1.00;1.00;;;1.68;94.49;96856.78;5019657;27;130338;-62
2022/04/05 05:53:24;;;;;;;21.73;14.82;;;1.10;1.00;;;1.55;94.83;96855.09;5024206;27;129057;-63
2022/04/05 05:55:52;;;;;;;20.70;14.00;;;1.10;1.00;;;1.49;96.07;96856.38;5020549;27;120241;-62
2022/04/05 05:58:21;;;;;;;24.83;16.10;;;1.00;1.00;;;1.54;96.72;96853.53;5039580;27;119571;-63
2022/04/05 06:00:49;;;;;;;24.35;15.95;;;1.00;1.00;;;1.63;96.42;96843.59;5039093;27;130813;-62
2022/04/05 06:03:18;;;;;;;22.70;16.10;;;1.00;3.40;;;1.49;96.27;96840.31;5038942;27;129735;-63
2022/04/05 06:05:48;;;;;;;22.08;15.70;;;1.00;2.70;;;1.66;96.23;96840.28;5039059;27;119631;-62
2022/04/05 06:08:17;;;;;;;21.38;14.98;;;1.00;4.60;;;1.73;96.15;96840.59;5039626;27;119469;-61
2022/04/05 06:10:46;;;;;;;23.20;16.15;;;1.10;5.70;;;1.64;96.83;96847.84;5023719;27;129653;-61
2022/04/05 06:13:15;;;;;;;24.20;16.48;;;1.10;7.60;;;1.88;96.66;96841.19;5020704;27;129637;-63
2022/04/05 06:15:43;;;;;;;21.20;14.85;;;1.10;15.00;;;1.77;96.58;96841.50;5038193;27;122946;-62
2022/04/05 06:18:12;;;;;;;23.38;16.23;;;1.10;17.60;;;1.96;96.34;96837.69;5020659;27;122086;-61
2022/04/05 06:20:40;;;;;;;23.52;16.20;;;1.20;16.70;;;2.11;95.71;96834.50;5040396;27;130822;-62
2022/04/05 06:23:10;;;;;;;23.90;15.45;;;1.30;17.00;;;2.25;94.88;96833.50;5038623;27;130138;-62
2022/04/05 06:25:39;;;;;;;25.55;15.70;;;1.30;8.90;;;2.07;94.86;96838.94;5039000;27;119539;-62
2022/04/05 06:28:10;;;;;;;23.85;15.50;;;1.30;8.30;;;1.95;95.32;96830.78;5038743;27;119508;-62
2022/04/05 06:30:41;;;;;;;27.30;16.58;;;1.20;9.60;;;2.20;94.69;96836.34;5038689;27;130390;-61
2022/04/05 06:33:11;;;;;;;21.75;15.73;;;1.20;11.70;;;1.94;95.69;96834.56;5038992;27;130274;-62
2022/04/05 06:35:43;;;;;;;24.90;16.27;;;1.30;11.60;;;1.98;96.29;96819.44;5038732;27;120835;-61
2022/04/05 06:38:14;;;;;;;22.15;16.20;;;1.30;16.80;;;1.87;96.82;96818.22;5038794;27;120550;-64
2022/04/05 06:40:43;;;;;;;27.38;15.77;;;1.30;24.00;;;2.16;95.68;96828.94;5037390;27;129952;-62
2022/04/05 06:43:13;;;;;;;24.45;16.40;;;1.30;25.80;;;2.04;95.81;96823.53;5038142;27;129823;-63
2022/04/05 06:45:42;;;;;;;24.05;15.63;;;1.30;25.60;;;1.68;97.67;96816.69;5038785;27;120145;-62
2022/04/05 06:48:11;;;;;;;25.23;16.98;;;1.20;24.30;;;1.69;98.23;96812.91;5041818;27;119309;-62
2022/04/05 06:50:40;;;;;;;25.17;16.90;;;1.00;33.00;;;2.01;97.83;96818.81;5038656;27;131564;-61
2022/04/05 06:53:11;;;;;;;25.98;17.63;;;1.10;46.70;;;1.92;98.05;96812.69;5020441;27;130275;-63
2022/04/05 06:55:42;;;;;;;22.35;15.43;;;1.20;49.20;;;1.94;98.35;96823.84;5038836;27;120077;-61
2022/04/05 06:58:10;;;;;;;23.98;15.82;;;1.20;53.70;;;2.12;97.52;96814.66;5023828;27;118478;-62
2022/04/05 07:00:39;;;;;;;26.55;16.48;;;1.20;59.30;;;2.09;97.68;96820.66;5023289;27;129910;-62
2022/04/05 07:03:07;;;;;;;22.63;16.23;;;1.20;55.50;;;1.63;99.29;96819.53;5006220;27;128592;-63
2022/04/05 07:05:36;;;;;;;24.15;15.75;;;1.10;50.80;;;1.97;99.42;96823.22;5037307;27;122042;-61
2022/04/05 07:08:06;;;;;;;24.90;15.38;;;1.20;62.50;;;1.83;99.64;96809.28;5037733;27;123005;-62
2022/04/05 07:10:35;;;;;;;19.15;13.68;;;1.20;65.20;;;2.22;97.69;96820.75;5041474;27;130181;-62
2022/04/05 07:13:05;;;;;;;22.25;14.88;;;1.30;69.50;;;2.25;97.59;96809.41;5041922;27;130021;-62
2022/04/05 07:15:34;;;;;;;20.05;14.63;;;1.40;63.60;;;2.15;97.51;96814.03;5041701;27;119406;-61
2022/04/05 07:18:03;;;;;;;22.17;15.93;;;1.40;52.40;;;2.58;96.55;96814.13;5041716;27;120734;-63
2022/04/05 07:20:31;;;;;;;18.48;13.70;;;1.50;54.90;;;2.65;95.64;96809.00;5042824;27;129713;-63
2022/04/05 07:23:00;;;;;;;17.73;12.70;;;1.70;37.10;;;2.68;94.78;96808.34;5009728;27;128311;-62
2022/04/05 07:25:29;;;;;;;20.58;14.05;;;1.70;18.00;;;3.14;93.63;96803.94;5041771;27;120647;-62
2022/04/05 07:27:58;;;;;;;17.42;12.55;;;1.90;9.10;;;3.31;92.56;96800.31;5041736;27;119675;-62
2022/04/05 07:30:28;;;;;;;17.67;12.55;;;2.10;1.00;;;4.63;87.78;96802.28;5040201;27;129888;-64
2022/04/05 07:32:56;;;;;;;14.73;11.15;;;2.70;1.00;;;5.24;83.78;96809.38;5038996;27;129524;-63
2022/04/05 07:35:26;;;;;;;16.55;11.82;;;3.10;1.00;;;5.18;82.88;96798.09;5026484;27;118910;-62
2022/04/05 07:37:55;;;;;;;14.73;11.25;;;3.20;1.00;;;4.78;83.51;96795.41;5023505;27;119378;-61
2022/04/05 07:40:25;;;;;;;16.35;12.32;;;3.00;1.00;;;5.02;83.48;96806.09;5041254;27;130087;-62
2022/04/05 07:42:53;;;;;;;17.92;11.35;;;3.00;1.00;;;4.93;83.42;96802.75;5039766;27;129476;-62
2022/04/05 07:45:22;;;;;;;14.50;11.27;;;2.90;1.00;;;4.37;85.30;96791.88;5041159;27;119293;-62
2022/04/05 07:47:52;;;;;;;15.57;11.52;;;2.70;1.00;;;3.85;86.81;96804.03;5041720;27;120373;-62
2022/04/05 07:50:21;;;;;;;16.35;12.27;;;2.40;1.00;;;3.39;89.25;96796.75;5040730;27;129749;-63
2022/04/05 07:52:51;;;;;;;16.30;12.38;;;2.10;1.00;;;3.53;89.93;96799.16;5040691;27;129247;-62
2022/04/05 07:55:20;;;;;;;15.15;10.70;;;2.20;1.00;;;3.12;90.84;96787.41;5025121;27;122733;-60
2022/04/05 07:57:49;;;;;;;15.23;11.27;;;2.10;1.00;;;3.22;90.89;96792.34;5022904;27;122243;-60
2022/04/05 08:00:18;;;;;;;16.20;12.13;;;2.10;1.00;;;3.38;91.18;96797.09;5025433;27;128830;-62
2022/04/05 08:02:47;;;;;;;16.73;11.80;;;2.10;1.00;;;3.30;91.00;96795.28;5040588;27;129603;-62
2022/04/05 08:05:17;;;;;;;17.40;12.27;;;2.10;1.00;;;2.96;92.82;96786.41;5040917;27;119583;-63
2022/04/05 08:07:46;;;;;;;16.30;11.30;;;2.00;1.00;;;3.36;91.20;96799.31;5041037;27;119753;-63
2022/04/05 08:10:15;;;;;;;16.77;11.23;;;2.10;1.00;;;3.64;90.06;96793.38;5040478;27;129902;-62
2022/04/05 08:12:47;;;;;;;17.42;12.00;;;2.30;1.00;;;3.88;89.49;96796.13;5039606;27;129381;-62
2022/04/05 08:15:18;;;;;;;17.77;11.90;;;2.50;1.00;;;3.90;89.09;96795.78;5041010;27;120906;-62
2022/04/05 08:17:47;;;;;;;17.27;11.30;;;2.50;1.00;;;3.60;90.06;96798.63;5040059;27;119647;-63
2022/04/05 08:20:17;;;;;;;14.30;10.98;;;2.40;1.00;;;3.47;90.50;96789.75;5039896;27;129674;-63
2022/04/05 08:22:47;;;;;;;14.50;10.68;;;2.40;1.00;;;3.63;89.66;96792.59;5038345;27;129471;-61
2022/04/05 08:25:17;;;;;;;16.42;10.82;;;2.40;1.00;;;3.62;89.52;96788.34;5040632;27;120400;-62
2022/04/05 08:27:48;;;;;;;15.80;10.85;;;2.40;1.00;;;3.67;89.47;96787.34;5040756;27;119390;-62
2022/04/05 08:30:19;;;;;;;13.48;9.75;;;2.40;1.00;;;3.49;89.68;96792.09;5040077;27;129756;-61
2022/04/05 08:32:50;;;;;;;14.35;10.27;;;2.50;1.00;;;3.67;89.12;96792.72;5040043;27;130023;-62
2022/04/05 08:35:22;;;;;;;15.30;11.05;;;2.40;1.00;;;3.70;88.82;96786.69;5025592;27;118846;-63
2022/04/05 08:37:53;;;;;;;14.45;10.45;;;2.60;1.00;;;3.54;89.06;96790.00;5025604;27;118032;-63
2022/04/05 08:40:25;;;;;;;14.85;11.40;;;2.50;1.00;;;3.18;91.49;96782.59;5039959;27;130201;-68
2022/04/05 08:42:56;;;;;;;18.73;12.18;;;2.30;1.00;;;3.30;90.40;96784.56;5024855;27;129631;-62
2022/04/05 08:45:26;;;;;;;15.75;11.30;;;2.30;1.00;;;3.45;90.32;96780.50;5039159;27;122530;-63
2022/04/05 08:47:57;;;;;;;16.05;11.20;;;2.40;1.00;;;3.28;91.04;96781.44;5024872;27;122306;-61
2022/04/05 08:50:29;;;;;;;17.33;11.27;;;2.40;1.00;;;3.62;89.58;96779.53;5039774;27;129842;-62
2022/04/05 08:53:00;;;;;;;13.88;10.80;;;2.50;1.00;;;3.60;89.72;96783.31;5024774;27;128670;-63
2022/04/05 08:55:30;;;;;;;15.68;11.50;;;2.60;1.00;;;3.93;88.39;96790.53;5005614;27;120130;-63
2022/04/05 08:57:59;;;;;;;14.38;11.05;;;2.70;1.00;;;3.93;87.23;96779.78;5040147;27;119717;-61
2022/04/05 09:00:27;;;;;;;16.45;11.02;;;2.60;1.00;;;4.08;87.02;96778.34;5039546;27;130620;-62
2022/04/05 09:02:59;;;;;;;17.98;11.52;;;2.80;1.00;;;3.96;86.96;96787.16;5040087;27;130049;-63
2022/04/05 09:05:32;;;;;;;16.55;11.07;;;2.80;1.00;;;3.95;87.17;96788.28;5040138;27;119642;-62
2022/04/05 09:08:26;;;;;;;16.25;10.57;;;2.80;1.00;;;3.74;88.23;96776.84;5039869;27;119995;-63
2022/04/05 09:11:10;;;;;;;15.45;11.18;;;2.80;1.00;;;3.80;88.70;96767.47;5026512;27;130872;-60
2022/04/05 09:13:39;;;;;;;15.30;11.07;;;2.90;1.00;;;3.72;88.58;96760.31;5024508;27;128304;-61
2022/04/05 09:16:08;;;;;;;15.82;11.95;;;2.80;1.00;;;4.19;87.39;96767.97;5024276;27;119432;-61
2022/04/05 09:18:38;;;;;;;15.23;10.80;;;2.90;1.00;;;3.99;88.07;96771.50;5040057;27;119702;-61
2022/04/05 09:21:09;;;;;;;16.95;11.52;;;2.90;1.00;;;4.10;87.53;96772.66;5041966;27;130303;-62
2022/04/05 09:23:41;;;;;;;16.65;11.45;;;2.90;1.00;;;4.10;88.12;96781.47;5039672;27;129310;-61
2022/04/05 09:26:13;;;;;;;17.73;12.15;;;2.90;1.00;;;4.26;86.75;96776.22;5043575;27;102947;-59
2022/04/05 09:28:44;;;;;;;16.25;11.68;;;3.00;1.00;;;3.92;87.42;96783.56;5040301;27;119285;-62
2022/04/05 09:31:17;;;;;;;18.45;11.75;;;2.80;1.00;;;3.93;88.19;96792.44;5038353;27;130156;-60
2022/04/05 09:34:04;;;;;;;16.33;11.38;;;2.80;1.00;;;3.33;90.95;96783.91;5039214;27;129909;-60
2022/04/05 09:36:40;;;;;;;19.02;12.25;;;2.60;1.00;;;3.09;92.72;96792.66;5038761;27;123413;-61
2022/04/05 09:39:17;;;;;;;19.02;12.50;;;2.50;1.00;;;3.42;91.86;96795.31;5039721;27;121914;-61
2022/04/05 09:41:47;;;;;;;17.65;11.77;;;2.50;1.00;;;3.12;92.98;96784.72;5039449;27;129594;-61
2022/04/05 09:44:27;;;;;;;20.75;12.07;;;2.50;1.00;;;3.31;93.04;96786.13;5021190;27;129580;-62
2022/04/05 09:47:07;;;;;;;19.70;12.93;;;2.60;1.00;;;3.31;93.13;96797.63;5039574;27;119732;-61
2022/04/05 09:49:38;;;;;;;20.35;13.50;;;2.60;1.00;;;3.53;92.81;96791.09;5024320;27;119150;-62
2022/04/05 09:52:28;;;;;;;20.50;14.27;;;2.70;1.00;;;3.87;91.00;96797.22;5039099;27;129750;-60
2022/04/05 09:54:57;;;;;;;22.10;13.68;;;2.90;1.00;;;3.88;89.88;96784.56;5036927;27;129928;-62
2022/04/05 09:57:31;;;;;;;19.63;13.07;;;2.90;1.00;;;4.20;88.58;96792.88;5039519;27;119495;-63
2022/04/05 10:00:09;;;;;;;18.30;12.27;;;3.00;1.00;;;4.29;87.77;96780.13;5042626;27;119322;-61
2022/04/05 10:03:02;;;;;;;16.70;11.80;;;3.10;1.00;;;3.96;89.43;96784.50;5037853;27;129694;-60
2022/04/05 10:05:32;;;;;;;18.17;12.77;;;3.00;1.00;;;3.95;89.43;96784.81;5038628;27;130240;-62
2022/04/05 10:08:02;;;;;;;17.60;13.13;;;3.00;1.00;;;3.90;89.46;96769.72;5039248;27;120344;-60
2022/04/05 10:10:31;;;;;;;18.80;12.77;;;2.90;1.00;;;3.84;90.55;96781.78;5024161;27;118606;-60
2022/04/05 10:12:59;;;;;;;19.00;12.80;;;2.90;1.00;;;3.85;90.49;96778.00;5038956;27;130238;-61
2022/04/05 10:15:30;;;;;;;19.45;12.65;;;2.90;1.00;;;3.92;90.01;96772.84;5038756;27;130568;-63
2022/04/05 10:17:59;;;;;;;18.20;12.75;;;2.90;1.00;;;3.85;90.77;96769.94;5038929;27;119782;-61
2022/04/05 10:20:29;;;;;;;19.08;12.10;;;2.90;1.00;;;3.78;91.04;96764.34;5041099;27;119791;-61
2022/04/05 10:23:01;;;;;;;22.50;13.30;;;2.90;1.00;;;4.11;89.78;96763.47;5038858;27;130251;-60
2022/04/05 10:25:31;;;;;;;16.90;12.10;;;3.10;1.00;;;4.38;88.91;96777.31;5006670;27;129403;-60
2022/04/05 10:28:01;;;;;;;18.42;11.38;;;3.20;1.00;;;4.40;86.99;96775.09;5037459;27;122942;-60
2022/04/05 10:30:36;;;;;;;15.85;11.55;;;3.20;1.00;;;4.12;88.15;96776.56;5038723;27;121591;-63